Terminal Aerodrome Forecast
Issued by NWS

Home | Current Version | Previous Version | Text Only | Print | Product List | Glossary On
Versions: 1 2 3 4 5 6 7 8 9 10 11 12 13 14 15 16 17
000
FTUS46 KSEW 181308 AAA
TAFHQM
TAF AMD
KHQM 181308Z 1813/1912 05006KT P6SM VCSH FEW035 OVC060
      TEMPO 1813/1817 -SHRA
     FM181800 08007KT P6SM OVC045
     FM182200 10008KT P6SM BKN050 OVC100
     FM191100 11012KT P6SM -RA OVC035=

USA.gov is the U.S. government's official web portal to all federal, state and local government web resources and services.